Time;durP1;ratioP1;P1;durP2;ratioP2;P2;SDS_P1;SDS_P2;PMS_P1;PMS_P2;Temp;Humidity;BMP_temperature;BMP_pressure;BME280_temperature;BME280_humidity;BME280_pressure;Samples;Min_cycle;Max_cycle;Signal;HPM_P1;HPM_P2
2024/02/21 00:01:02;;;;;;;24.40;20.20;;;9.10;99.90;;;;;;5053596;28;20474;-69
2024/02/21 00:03:31;;;;;;;21.13;17.30;;;9.10;99.90;;;;;;5052823;28;20471;-70
2024/02/21 00:05:58;;;;;;;27.87;18.73;;;9.10;99.90;;;;;;5053224;28;20455;-70
2024/02/21 00:08:25;;;;;;;26.83;20.97;;;9.10;99.90;;;;;;5053462;28;20451;-70
2024/02/21 00:10:52;;;;;;;32.00;20.77;;;9.10;99.90;;;;;;5053385;28;20455;-70
2024/02/21 00:13:18;;;;;;;31.00;22.50;;;9.10;99.90;;;;;;5044189;28;20489;-69
2024/02/21 00:15:45;;;;;;;35.43;26.40;;;9.10;99.90;;;;;;5053409;28;20462;-70
2024/02/21 00:18:12;;;;;;;29.83;22.33;;;9.10;99.90;;;;;;5053046;28;21455;-70
2024/02/21 00:20:40;;;;;;;30.80;24.47;;;9.10;99.90;;;;;;5053626;28;20845;-70
2024/02/21 00:23:07;;;;;;;28.50;25.60;;;9.10;99.90;;;;;;5052330;28;20471;-70
2024/02/21 00:25:34;;;;;;;29.57;26.50;;;9.10;99.90;;;;;;5052443;28;20451;-70
2024/02/21 00:28:01;;;;;;;32.03;28.83;;;9.00;99.90;;;;;;5052187;28;20946;-70
2024/02/21 00:30:28;;;;;;;31.93;27.70;;;9.00;99.90;;;;;;5052670;28;20451;-70
2024/02/21 00:32:54;;;;;;;33.47;30.37;;;9.00;99.90;;;;;;5051883;28;20471;-70
2024/02/21 00:35:21;;;;;;;37.40;34.20;;;9.00;99.90;;;;;;5052396;28;20451;-70
2024/02/21 00:37:49;;;;;;;43.93;40.30;;;9.00;99.90;;;;;;5052180;28;20447;-70
2024/02/21 00:40:19;;;;;;;44.27;40.97;;;9.00;99.90;;;;;;5052202;28;20491;-70
2024/02/21 00:42:46;;;;;;;47.80;43.97;;;9.00;99.90;;;;;;5052092;28;20588;-70
2024/02/21 00:45:13;;;;;;;50.90;46.17;;;8.90;99.90;;;;;;5052572;28;20455;-70
2024/02/21 00:47:40;;;;;;;48.13;44.80;;;8.90;99.90;;;;;;5052275;28;20447;-70
2024/02/21 00:50:09;;;;;;;50.37;46.97;;;8.90;99.90;;;;;;5051493;28;20451;-70
2024/02/21 00:52:36;;;;;;;50.53;46.27;;;9.00;99.90;;;;;;5051663;28;20522;-70
2024/02/21 00:55:05;;;;;;;48.90;45.17;;;8.90;99.90;;;;;;5051610;28;20483;-70
2024/02/21 00:57:32;;;;;;;58.80;54.60;;;9.00;99.90;;;;;;5052206;28;20460;-70
2024/02/21 00:59:58;;;;;;;59.13;54.57;;;9.00;99.90;;;;;;5051806;28;20856;-70
2024/02/21 01:02:25;;;;;;;57.80;53.70;;;9.00;99.90;;;;;;5052017;28;20471;-70
2024/02/21 01:04:52;;;;;;;56.67;52.97;;;8.90;99.90;;;;;;5051655;28;20509;-70
2024/02/21 01:07:19;;;;;;;57.00;53.50;;;9.10;99.90;;;;;;5052406;28;20450;-70
2024/02/21 01:09:46;;;;;;;51.63;47.87;;;8.90;99.90;;;;;;5051551;28;20935;-71
2024/02/21 01:12:14;;;;;;;54.90;51.20;;;8.90;99.90;;;;;;5051669;28;20455;-68
2024/02/21 01:14:41;;;;;;;59.00;54.90;;;9.00;99.90;;;;;;5051614;28;20483;-70
2024/02/21 01:17:08;;;;;;;57.20;52.30;;;8.90;99.90;;;;;;5051799;28;20465;-70
2024/02/21 01:19:34;;;;;;;53.00;49.50;;;9.00;99.90;;;;;;5051760;28;20473;-70
2024/02/21 01:22:01;;;;;;;51.20;47.37;;;9.00;99.90;;;;;;5051592;28;20455;-70
2024/02/21 01:24:28;;;;;;;49.70;45.53;;;8.90;99.90;;;;;;5051138;28;20453;-70
2024/02/21 01:26:55;;;;;;;52.97;49.40;;;9.00;99.90;;;;;;5051517;28;20974;-70
2024/02/21 01:29:23;;;;;;;52.60;49.20;;;9.00;99.90;;;;;;5051764;28;20474;-70
2024/02/21 01:31:50;;;;;;;50.63;46.73;;;9.00;99.90;;;;;;5051789;28;20458;-70
2024/02/21 01:34:16;;;;;;;46.90;43.60;;;9.00;99.90;;;;;;5050908;28;20487;-70
2024/02/21 01:36:43;;;;;;;48.53;44.23;;;8.90;99.90;;;;;;5051456;28;20451;-69
2024/02/21 01:39:10;;;;;;;45.27;41.23;;;8.90;99.90;;;;;;5051152;28;20465;-70
2024/02/21 01:41:37;;;;;;;47.13;43.73;;;8.90;99.90;;;;;;5051642;28;20546;-70
2024/02/21 01:44:04;;;;;;;44.77;41.53;;;9.00;99.90;;;;;;5051134;28;20546;-70
2024/02/21 01:46:32;;;;;;;50.07;46.07;;;8.90;99.90;;;;;;5051540;28;20447;-70
2024/02/21 01:49:00;;;;;;;51.93;47.73;;;8.90;99.90;;;;;;5051206;28;20462;-70
2024/02/21 01:51:28;;;;;;;46.23;42.93;;;8.90;99.90;;;;;;5051401;28;20451;-70
2024/02/21 01:53:57;;;;;;;49.10;44.87;;;8.90;99.90;;;;;;5050775;28;20493;-70
2024/02/21 01:56:24;;;;;;;51.73;47.50;;;8.90;99.90;;;;;;5051634;28;20447;-70
2024/02/21 01:58:52;;;;;;;46.23;42.00;;;8.90;99.90;;;;;;5051580;28;20462;-70
2024/02/21 02:01:19;;;;;;;45.80;42.77;;;8.90;99.90;;;;;;5052328;28;20455;-71
2024/02/21 02:03:48;;;;;;;44.80;41.30;;;8.90;99.90;;;;;;5054750;28;21005;-70
2024/02/21 02:06:16;;;;;;;47.57;44.00;;;8.90;99.90;;;;;;5055002;28;20811;-71
2024/02/21 02:08:43;;;;;;;46.83;43.37;;;9.00;99.90;;;;;;5055422;28;20447;-71
2024/02/21 02:11:10;;;;;;;43.13;40.10;;;8.90;99.90;;;;;;5054977;28;20446;-70
2024/02/21 02:13:37;;;;;;;38.70;35.43;;;9.00;99.90;;;;;;5054423;28;20483;-70
2024/02/21 02:16:04;;;;;;;38.87;35.83;;;9.10;99.90;;;;;;5054827;28;20459;-70
2024/02/21 02:18:31;;;;;;;41.17;38.17;;;9.00;99.90;;;;;;5054484;28;20955;-70
2024/02/21 02:20:59;;;;;;;43.47;40.20;;;9.00;99.90;;;;;;5054973;28;20980;-71
2024/02/21 02:23:28;;;;;;;44.10;40.43;;;8.90;99.90;;;;;;5054439;28;20479;-70
2024/02/21 02:25:56;;;;;;;47.10;43.90;;;8.90;99.90;;;;;;5054813;28;20844;-70
2024/02/21 02:28:23;;;;;;;47.53;44.20;;;8.90;99.90;;;;;;5054912;28;20455;-70
2024/02/21 02:30:50;;;;;;;45.70;42.23;;;8.90;99.90;;;;;;5054700;28;20576;-70
2024/02/21 02:33:18;;;;;;;49.80;45.20;;;8.90;99.90;;;;;;5053870;28;20478;-71
2024/02/21 02:35:44;;;;;;;58.27;54.10;;;8.90;99.90;;;;;;5054365;28;20483;-70
2024/02/21 02:38:13;;;;;;;58.83;55.20;;;8.90;99.90;;;;;;5054455;28;20451;-71
2024/02/21 02:40:41;;;;;;;67.67;64.37;;;8.90;99.90;;;;;;5054789;28;20459;-71
2024/02/21 02:43:08;;;;;;;88.97;84.37;;;8.80;99.90;;;;;;5053838;28;20525;-71
2024/02/21 02:45:35;;;;;;;98.97;93.93;;;8.80;99.90;;;;;;5054367;28;20542;-70
2024/02/21 02:48:02;;;;;;;97.40;92.37;;;8.80;99.90;;;;;;5054587;28;20451;-70
2024/02/21 02:50:29;;;;;;;99.17;94.23;;;8.70;99.90;;;;;;5054257;28;20545;-70
2024/02/21 02:52:56;;;;;;;103.10;98.10;;;8.70;99.90;;;;;;5053554;28;20483;-70
2024/02/21 02:55:23;;;;;;;89.87;84.87;;;8.70;99.90;;;;;;5054173;28;20486;-70
2024/02/21 02:57:51;;;;;;;69.90;65.43;;;8.70;99.90;;;;;;5054005;28;20455;-69
2024/02/21 03:00:19;;;;;;;62.53;59.00;;;8.80;99.90;;;;;;5053925;28;21050;-71
2024/02/21 03:02:49;;;;;;;67.30;63.00;;;8.80;99.90;;;;;;5053678;28;20857;-70
2024/02/21 03:05:17;;;;;;;64.77;60.77;;;8.80;99.90;;;;;;5054117;28;20832;-70
2024/02/21 03:07:45;;;;;;;63.87;60.17;;;8.80;99.90;;;;;;5054043;28;20466;-71
2024/02/21 03:10:13;;;;;;;64.60;60.10;;;8.80;99.90;;;;;;5053954;28;20447;-69
2024/02/21 03:12:40;;;;;;;64.17;60.37;;;8.80;99.90;;;;;;5054434;28;20467;-71
2024/02/21 03:15:09;;;;;;;66.17;62.47;;;8.80;99.90;;;;;;5053916;28;20577;-70
2024/02/21 03:17:36;;;;;;;59.80;55.93;;;8.80;99.90;;;;;;5053923;28;20955;-70
2024/02/21 03:20:05;;;;;;;64.57;59.77;;;8.80;99.90;;;;;;5053719;28;20456;-70
2024/02/21 03:22:32;;;;;;;60.87;56.77;;;8.80;99.90;;;;;;5053025;28;20961;-70
2024/02/21 03:24:59;;;;;;;55.97;51.43;;;8.80;99.90;;;;;;5053593;28;20988;-70
2024/02/21 03:27:25;;;;;;;54.30;50.30;;;8.80;99.90;;;;;;5053932;28;20459;-70
2024/02/21 03:29:52;;;;;;;49.33;46.03;;;8.80;99.90;;;;;;5053720;28;20545;-70
2024/02/21 03:32:20;;;;;;;47.47;44.17;;;8.80;99.90;;;;;;5045229;28;20857;-69
2024/02/21 03:34:47;;;;;;;45.47;42.13;;;8.80;99.90;;;;;;5053672;28;20561;-70
2024/02/21 03:37:14;;;;;;;48.00;43.90;;;8.90;99.90;;;;;;5053640;28;20456;-70
2024/02/21 03:39:41;;;;;;;44.80;41.20;;;8.90;99.90;;;;;;5053239;28;20998;-71
2024/02/21 03:42:08;;;;;;;40.73;38.00;;;8.80;99.90;;;;;;5053420;28;20451;-70
2024/02/21 03:44:35;;;;;;;44.80;41.77;;;8.90;99.90;;;;;;5053033;28;20447;-70
2024/02/21 03:47:02;;;;;;;47.57;44.07;;;8.80;99.90;;;;;;5053414;28;20458;-69
2024/02/21 03:49:30;;;;;;;46.97;43.87;;;8.80;99.90;;;;;;5053266;28;20459;-69
2024/02/21 03:51:57;;;;;;;48.63;45.40;;;8.80;99.90;;;;;;5053288;28;20503;-70
2024/02/21 03:54:24;;;;;;;41.77;38.57;;;8.80;99.90;;;;;;5052444;28;20479;-70
2024/02/21 03:56:51;;;;;;;44.50;41.30;;;8.80;99.90;;;;;;5053113;28;20487;-70
2024/02/21 03:59:18;;;;;;;49.17;45.47;;;8.80;99.90;;;;;;5052879;28;20838;-70
2024/02/21 04:01:45;;;;;;;51.27;48.07;;;8.80;99.90;;;;;;5053125;28;20459;-70
2024/02/21 04:04:12;;;;;;;46.33;43.03;;;8.80;99.90;;;;;;5052712;28;20554;-70
2024/02/21 04:06:48;;;;;;;41.33;38.77;;;8.80;99.90;;;;;;5052773;28;20451;-70
2024/02/21 04:09:15;;;;;;;42.33;38.80;;;8.80;99.90;;;;;;5053020;28;20458;-70
2024/02/21 04:11:42;;;;;;;41.43;38.70;;;8.80;99.90;;;;;;5052767;28;20972;-70
2024/02/21 04:14:11;;;;;;;39.73;36.80;;;8.80;99.90;;;;;;5052115;28;20873;-70
2024/02/21 04:16:37;;;;;;;46.83;43.30;;;8.80;99.90;;;;;;5052725;28;20827;-70
2024/02/21 04:19:04;;;;;;;40.37;37.20;;;8.80;99.90;;;;;;5052474;28;20450;-70
2024/02/21 04:21:31;;;;;;;41.77;39.07;;;8.80;99.90;;;;;;5052704;28;20482;-70
2024/02/21 04:23:59;;;;;;;41.87;39.27;;;8.80;99.90;;;;;;5051483;28;20858;-71
2024/02/21 04:26:26;;;;;;;36.50;33.60;;;8.80;99.90;;;;;;5052516;28;20962;-70
2024/02/21 04:28:53;;;;;;;39.60;35.80;;;8.80;99.90;;;;;;5052145;28;20950;-69
2024/02/21 04:31:20;;;;;;;29.63;26.93;;;8.80;99.90;;;;;;5052491;28;20455;-70
2024/02/21 04:33:46;;;;;;;29.87;26.87;;;8.80;99.90;;;;;;5051715;28;20471;-70
2024/02/21 04:36:13;;;;;;;27.30;24.53;;;8.80;99.90;;;;;;5052600;28;20820;-70
2024/02/21 04:38:41;;;;;;;25.77;23.47;;;8.90;99.90;;;;;;5052506;28;20455;-70
2024/02/21 04:41:09;;;;;;;24.30;20.73;;;8.90;99.90;;;;;;5052434;28;20459;-70
2024/02/21 04:43:36;;;;;;;21.77;18.67;;;8.90;99.90;;;;;;5051796;28;20475;-70
2024/02/21 04:46:02;;;;;;;27.13;22.00;;;8.90;99.90;;;;;;5051920;28;20458;-70
2024/02/21 04:48:29;;;;;;;22.30;20.03;;;8.90;99.90;;;;;;5051744;28;20452;-69
2024/02/21 04:50:56;;;;;;;24.27;21.87;;;8.90;99.90;;;;;;5052196;28;20954;-70
2024/02/21 04:53:23;;;;;;;24.07;21.83;;;8.90;99.90;;;;;;5051659;28;20849;-70
2024/02/21 04:55:50;;;;;;;27.20;20.47;;;8.80;99.90;;;;;;5052081;28;20475;-70
2024/02/21 04:58:18;;;;;;;24.60;21.03;;;8.80;99.90;;;;;;5051889;28;20502;-70
2024/02/21 05:00:45;;;;;;;22.50;20.63;;;8.80;99.90;;;;;;5051890;28;20838;-70
2024/02/21 05:03:11;;;;;;;26.13;23.83;;;8.80;99.90;;;;;;5051778;28;21279;-70
2024/02/21 05:05:38;;;;;;;21.30;19.40;;;8.80;99.90;;;;;;5052327;28;20499;-70
2024/02/21 05:08:05;;;;;;;21.73;17.23;;;8.80;99.90;;;;;;5052003;28;20451;-70
2024/02/21 05:10:32;;;;;;;19.87;17.97;;;8.80;99.90;;;;;;5051924;28;20902;-69
2024/02/21 05:12:59;;;;;;;29.07;18.07;;;8.80;99.90;;;;;;5051389;28;20471;-70
2024/02/21 05:15:27;;;;;;;22.77;19.87;;;8.80;99.90;;;;;;5051631;28;20483;-70
2024/02/21 05:17:54;;;;;;;25.80;20.43;;;8.80;99.90;;;;;;5051920;28;20829;-70
2024/02/21 05:20:21;;;;;;;23.77;21.43;;;8.80;99.90;;;;;;5052151;28;20481;-70
2024/02/21 05:22:48;;;;;;;24.57;21.53;;;8.80;99.90;;;;;;5051320;28;21134;-70
2024/02/21 05:25:14;;;;;;;24.73;22.23;;;8.70;99.90;;;;;;5051561;28;20538;-70
2024/02/21 05:27:41;;;;;;;26.83;23.93;;;8.70;99.90;;;;;;5051830;28;20447;-70
2024/02/21 05:30:09;;;;;;;35.23;25.40;;;8.70;99.90;;;;;;5051891;28;20946;-70
2024/02/21 05:32:38;;;;;;;26.10;23.90;;;8.70;99.90;;;;;;5051571;28;20887;-70
2024/02/21 05:35:05;;;;;;;26.03;23.83;;;8.70;99.90;;;;;;5052410;28;20485;-70
2024/02/21 05:37:32;;;;;;;24.77;22.77;;;8.70;99.90;;;;;;5056111;28;20455;-70
2024/02/21 05:39:58;;;;;;;25.97;23.80;;;8.70;99.90;;;;;;5055732;28;20456;-70
2024/02/21 05:42:25;;;;;;;22.97;21.07;;;8.70;99.90;;;;;;5055167;28;20477;-69
2024/02/21 05:44:52;;;;;;;19.20;17.33;;;8.70;99.90;;;;;;5055398;28;20830;-70
2024/02/21 05:47:20;;;;;;;18.70;17.00;;;8.70;99.90;;;;;;5047547;28;20541;-70
2024/02/21 05:49:48;;;;;;;22.87;18.77;;;8.70;99.90;;;;;;5055523;28;20893;-70
2024/02/21 05:52:15;;;;;;;21.07;16.97;;;8.80;99.90;;;;;;5055017;28;20533;-70
2024/02/21 05:54:42;;;;;;;18.73;17.13;;;8.70;99.90;;;;;;5055146;28;20455;-70
2024/02/21 05:57:09;;;;;;;22.13;19.60;;;8.70;99.90;;;;;;5054912;28;20459;-70
2024/02/21 05:59:39;;;;;;;21.57;19.67;;;8.70;99.90;;;;;;5055082;28;20829;-70
2024/02/21 06:02:06;;;;;;;21.80;19.90;;;8.80;99.90;;;;;;5055239;28;20474;-70
2024/02/21 06:04:33;;;;;;;20.77;18.57;;;8.80;99.90;;;;;;5054918;28;20455;-70
2024/02/21 06:07:01;;;;;;;18.33;16.53;;;8.70;99.90;;;;;;5055185;28;20839;-70
2024/02/21 06:09:28;;;;;;;21.80;16.10;;;8.80;99.90;;;;;;5055044;28;20449;-70
2024/02/21 06:11:55;;;;;;;21.00;13.40;;;8.80;99.90;;;;;;5054711;28;20461;-70
2024/02/21 06:14:22;;;;;;;15.43;11.63;;;8.80;99.90;;;;;;5054635;28;20501;-70
2024/02/21 06:16:48;;;;;;;16.23;11.40;;;8.80;99.90;;;;;;5054741;28;20497;-70
2024/02/21 06:19:15;;;;;;;18.17;9.63;;;8.80;99.90;;;;;;5054763;28;20860;-70
2024/02/21 06:21:42;;;;;;;13.80;8.70;;;8.80;99.90;;;;;;5054147;28;20451;-70
2024/02/21 06:24:12;;;;;;;18.20;8.17;;;8.80;99.90;;;;;;5054000;28;20471;-70
2024/02/21 06:26:40;;;;;;;19.10;9.40;;;8.80;99.90;;;;;;5053943;28;20897;-69
2024/02/21 06:29:06;;;;;;;14.57;8.50;;;8.80;99.90;;;;;;5053574;28;20454;-70
2024/02/21 06:31:34;;;;;;;14.23;7.77;;;8.80;99.90;;;;;;5054499;28;20451;-70
2024/02/21 06:34:01;;;;;;;13.33;7.30;;;8.80;99.90;;;;;;5053217;28;20470;-70
2024/02/21 06:36:27;;;;;;;10.40;7.70;;;8.80;99.90;;;;;;5054787;28;20487;-70
2024/02/21 06:38:54;;;;;;;14.80;8.20;;;8.80;99.90;;;;;;5053898;28;20458;-70
2024/02/21 06:41:22;;;;;;;15.83;7.03;;;8.80;99.90;;;;;;5054680;28;20846;-70
2024/02/21 06:43:49;;;;;;;11.57;7.60;;;8.80;99.90;;;;;;5053935;28;20532;-70
2024/02/21 06:46:25;;;;;;;9.20;7.60;;;8.80;99.90;;;;;;5053909;28;20459;-70
2024/02/21 06:48:51;;;;;;;17.80;10.40;;;8.80;99.90;;;;;;5053343;28;20505;-70
2024/02/21 06:51:18;;;;;;;15.00;13.30;;;8.80;99.90;;;;;;5053515;28;20461;-71
2024/02/21 06:53:45;;;;;;;17.30;13.97;;;8.80;99.90;;;;;;5053690;28;20482;-70
2024/02/21 06:56:12;;;;;;;19.40;15.67;;;8.80;99.90;;;;;;5054068;28;20506;-71
2024/02/21 06:58:40;;;;;;;26.20;23.80;;;8.80;99.90;;;;;;5053987;28;20655;-70
2024/02/21 07:01:07;;;;;;;33.33;31.27;;;8.80;99.90;;;;;;5054128;28;20451;-70
2024/02/21 07:03:34;;;;;;;39.77;36.60;;;8.80;99.90;;;;;;5053467;28;20501;-70
2024/02/21 07:06:02;;;;;;;60.63;57.20;;;8.70;99.90;;;;;;5053586;28;20450;-70
2024/02/21 07:08:28;;;;;;;61.27;57.40;;;8.70;99.90;;;;;;5053716;28;20954;-70
2024/02/21 07:10:55;;;;;;;62.50;59.00;;;8.70;99.90;;;;;;5053981;28;20450;-70
2024/02/21 07:13:22;;;;;;;73.97;70.57;;;8.60;99.90;;;;;;5053248;28;20485;-70
2024/02/21 07:15:51;;;;;;;78.73;74.43;;;8.60;99.90;;;;;;5053599;28;20991;-70
2024/02/21 07:18:18;;;;;;;86.40;82.47;;;8.70;99.90;;;;;;5053580;28;20459;-70
2024/02/21 07:20:44;;;;;;;88.43;84.37;;;8.60;99.90;;;;;;5053869;28;20478;-70
2024/02/21 07:23:11;;;;;;;75.30;71.67;;;8.70;99.90;;;;;;5053362;28;20471;-70
2024/02/21 07:25:39;;;;;;;64.80;61.10;;;8.70;99.90;;;;;;5053617;28;20443;-69
2024/02/21 07:28:07;;;;;;;61.90;58.40;;;8.70;99.90;;;;;;5053306;28;20459;-70
2024/02/21 07:30:34;;;;;;;51.90;48.43;;;8.70;99.90;;;;;;5051789;28;20534;-70
2024/02/21 07:33:03;;;;;;;36.67;34.13;;;8.80;99.90;;;;;;5050591;28;20564;-69
2024/02/21 07:35:30;;;;;;;30.53;28.20;;;8.80;99.90;;;;;;5050876;28;20569;-70
2024/02/21 07:37:56;;;;;;;25.73;23.30;;;8.80;99.90;;;;;;5052256;28;20459;-70
2024/02/21 07:40:24;;;;;;;26.17;24.13;;;8.80;99.90;;;;;;5051379;28;20954;-70
2024/02/21 07:42:51;;;;;;;19.97;18.03;;;8.80;99.90;;;;;;5052314;28;20475;-70
2024/02/21 07:45:18;;;;;;;20.10;18.17;;;8.80;99.90;;;;;;5052407;28;20451;-70
2024/02/21 07:47:45;;;;;;;21.67;19.67;;;8.80;99.90;;;;;;5052236;28;20487;-70
2024/02/21 07:50:13;;;;;;;23.97;19.90;;;8.80;99.90;;;;;;5052593;28;20457;-69
2024/02/21 07:52:40;;;;;;;26.10;17.23;;;8.80;99.90;;;;;;5052334;28;20936;-69
2024/02/21 07:55:07;;;;;;;22.60;20.37;;;8.90;99.90;;;;;;5052201;28;20956;-70
2024/02/21 07:57:34;;;;;;;22.10;20.30;;;8.80;99.90;;;;;;5051852;28;20455;-70
2024/02/21 08:00:00;;;;;;;23.07;20.80;;;8.80;99.90;;;;;;5051432;28;20466;-69
2024/02/21 08:02:29;;;;;;;25.67;21.67;;;8.80;99.90;;;;;;5051909;28;20497;-74
2024/02/21 08:04:56;;;;;;;23.63;21.73;;;8.70;99.90;;;;;;5052391;28;20955;-74
2024/02/21 08:07:24;;;;;;;30.60;27.50;;;8.80;99.90;;;;;;5052475;28;20452;-72
2024/02/21 08:09:51;;;;;;;32.70;29.67;;;8.80;99.90;;;;;;5052331;28;20943;-73
2024/02/21 08:12:18;;;;;;;51.30;48.20;;;8.80;99.90;;;;;;5052067;28;20448;-75
2024/02/21 08:14:45;;;;;;;33.50;30.50;;;8.90;99.90;;;;;;5052895;28;20200;-74
2024/02/21 08:17:11;;;;;;;33.50;30.63;;;8.90;99.90;;;;;;5052155;28;21020;-71
2024/02/21 08:19:38;;;;;;;31.37;29.17;;;8.80;99.90;;;;;;5052351;28;20961;-67
2024/02/21 08:22:06;;;;;;;30.30;27.83;;;8.90;99.90;;;;;;5052504;28;20459;-70
2024/02/21 08:24:34;;;;;;;32.83;30.00;;;8.90;99.90;;;;;;5052636;28;20448;-70
2024/02/21 08:27:00;;;;;;;41.72;38.40;;;8.90;99.90;;;;;;5052213;28;20452;-70
2024/02/21 08:29:27;;;;;;;37.90;35.10;;;8.90;99.90;;;;;;5052583;28;20207;-68
2024/02/21 08:31:54;;;;;;;35.00;32.40;;;9.00;99.90;;;;;;5052609;28;20458;-67
2024/02/21 08:34:21;;;;;;;32.97;30.33;;;9.00;99.90;;;;;;5051987;28;20478;-71
2024/02/21 08:36:48;;;;;;;32.40;30.00;;;9.00;99.90;;;;;;5049306;28;20475;-68
2024/02/21 08:39:16;;;;;;;33.40;30.30;;;9.00;99.90;;;;;;5051549;28;20461;-68
2024/02/21 08:41:44;;;;;;;34.17;31.87;;;9.00;99.90;;;;;;5051337;28;20447;-66
2024/02/21 08:44:11;;;;;;;34.90;32.50;;;9.00;99.90;;;;;;5051070;28;20857;-68
2024/02/21 08:46:40;;;;;;;37.27;34.50;;;9.00;99.90;;;;;;5051575;28;20553;-68
2024/02/21 08:49:06;;;;;;;42.10;39.20;;;9.00;99.90;;;;;;5051172;28;20968;-67
2024/02/21 08:51:33;;;;;;;40.60;37.63;;;9.00;99.90;;;;;;5051342;28;20935;-68
2024/02/21 08:54:01;;;;;;;34.23;31.90;;;9.10;99.90;;;;;;5050859;28;20481;-68
2024/02/21 08:56:27;;;;;;;39.70;36.90;;;9.10;99.90;;;;;;5051142;28;21010;-68
2024/02/21 08:58:57;;;;;;;39.87;37.07;;;9.20;99.90;;;;;;5051199;28;20845;-68
2024/02/21 09:01:23;;;;;;;28.40;26.23;;;9.40;99.90;;;;;;5051769;28;20460;-67
2024/02/21 09:03:53;;;;;;;24.63;21.93;;;9.40;99.90;;;;;;5050649;28;20996;-68
2024/02/21 09:06:20;;;;;;;23.40;20.60;;;9.40;99.90;;;;;;5051286;28;20443;-68
2024/02/21 09:08:47;;;;;;;18.02;13.20;;;9.50;99.90;;;;;;5050799;28;20455;-67
2024/02/21 09:11:13;;;;;;;19.13;10.17;;;9.60;99.90;;;;;;5050484;28;20211;-68
2024/02/21 09:13:40;;;;;;;13.33;8.27;;;9.70;99.90;;;;;;5050833;28;20475;-68
2024/02/21 09:16:09;;;;;;;12.47;8.07;;;9.90;99.90;;;;;;5051549;28;20483;-68
2024/02/21 09:18:35;;;;;;;15.27;6.13;;;10.00;99.90;;;;;;5051713;28;20832;-67
2024/02/21 09:21:02;;;;;;;13.13;5.70;;;10.10;99.90;;;;;;5051568;28;20451;-67
2024/02/21 09:23:31;;;;;;;11.00;5.67;;;10.10;99.90;;;;;;5051008;28;20503;-68
2024/02/21 09:26:00;;;;;;;12.07;6.20;;;10.20;98.90;;;;;;5051707;28;20585;-68
2024/02/21 09:28:27;;;;;;;8.27;4.10;;;10.30;97.80;;;;;;5051809;28;20450;-68
2024/02/21 09:30:54;;;;;;;10.10;4.93;;;10.20;97.70;;;;;;5051653;28;20451;-68
2024/02/21 09:33:22;;;;;;;16.93;5.40;;;10.20;97.70;;;;;;5051059;28;21012;-68
2024/02/21 09:35:49;;;;;;;10.87;5.10;;;10.10;97.60;;;;;;5051470;28;20451;-67
2024/02/21 09:38:16;;;;;;;11.33;3.77;;;10.10;97.60;;;;;;5051681;28;20507;-69
2024/02/21 09:40:43;;;;;;;13.60;4.47;;;10.10;97.60;;;;;;5051733;28;20483;-68
2024/02/21 09:43:09;;;;;;;9.90;3.57;;;10.10;97.60;;;;;;5051201;28;20471;-68
2024/02/21 09:45:38;;;;;;;8.67;3.87;;;10.10;97.60;;;;;;5051652;28;20812;-68
2024/02/21 09:48:15;;;;;;;10.73;4.27;;;10.20;97.70;;;;;;5051411;28;20462;-68
2024/02/21 09:50:45;;;;;;;13.70;4.50;;;10.20;94.50;;;;;;5051395;28;20451;-69
2024/02/21 09:53:14;;;;;;;6.97;2.70;;;10.20;97.70;;;;;;5050819;28;20529;-68
2024/02/21 09:55:41;;;;;;;10.30;4.77;;;10.20;94.80;;;;;;5051350;28;20517;-68
2024/02/21 09:58:09;;;;;;;9.23;3.50;;;10.20;94.60;;;;;;5051316;28;20900;-67
2024/02/21 10:00:36;;;;;;;8.33;3.70;;;10.30;95.70;;;;;;5051416;28;20823;-67
2024/02/21 10:03:07;;;;;;;8.60;3.53;;;10.30;97.40;;;;;;5050470;28;20699;-67
2024/02/21 10:05:35;;;;;;;9.57;3.47;;;10.30;94.40;;;;;;5051333;28;20478;-67
2024/02/21 10:08:04;;;;;;;10.97;4.20;;;10.30;94.40;;;;;;5051387;28;20866;-67
2024/02/21 10:10:31;;;;;;;7.87;3.30;;;10.30;94.40;;;;;;5051362;28;20446;-67
2024/02/21 10:12:58;;;;;;;12.97;4.37;;;10.30;94.50;;;;;;5050716;28;20459;-67
2024/02/21 10:15:26;;;;;;;10.77;3.23;;;10.40;94.50;;;;;;5051093;28;20447;-67
2024/02/21 10:18:00;;;;;;;8.50;3.30;;;10.20;94.40;;;;;;5051037;28;20491;-67
2024/02/21 10:20:27;;;;;;;8.87;3.80;;;10.20;94.40;;;;;;5044195;28;20458;-67
2024/02/21 10:23:07;;;;;;;15.17;3.90;;;10.20;94.40;;;;;;5052189;28;20549;-66
2024/02/21 10:25:35;;;;;;;12.00;3.43;;;10.30;93.10;;;;;;5054775;28;20832;-67
2024/02/21 10:28:03;;;;;;;10.80;3.83;;;10.40;94.50;;;;;;5054534;28;20547;-67
2024/02/21 10:30:30;;;;;;;10.23;4.80;;;10.50;94.50;;;;;;5054640;28;20509;-67
2024/02/21 10:32:57;;;;;;;12.27;5.43;;;10.60;94.50;;;;;;5054284;28;20478;-67
2024/02/21 10:35:28;;;;;;;17.13;6.13;;;10.70;93.60;;;;;;5054646;28;20454;-68
2024/02/21 10:37:55;;;;;;;15.10;5.13;;;10.90;91.30;;;;;;5054317;28;20854;-67
2024/02/21 10:40:24;;;;;;;12.57;4.63;;;10.90;91.40;;;;;;5054223;28;20451;-68
2024/02/21 10:42:58;;;;;;;11.07;4.50;;;10.90;91.30;;;;;;5053774;28;20850;-68
2024/02/21 10:45:29;;;;;;;14.60;5.47;;;10.80;91.30;;;;;;5054391;28;20447;-67
2024/02/21 10:48:01;;;;;;;7.20;3.90;;;11.00;91.40;;;;;;5053788;28;20451;-66
2024/02/21 10:50:37;;;;;;;10.70;4.80;;;11.20;91.50;;;;;;5054197;28;20538;-67
2024/02/21 10:53:15;;;;;;;12.60;4.50;;;11.20;91.50;;;;;;5053399;28;20505;-67
2024/02/21 10:55:55;;;;;;;16.50;5.07;;;11.40;91.50;;;;;;5054401;28;20455;-67
2024/02/21 10:58:23;;;;;;;8.83;4.27;;;11.70;91.70;;;;;;5046323;28;20478;-66
2024/02/21 11:00:51;;;;;;;8.93;4.20;;;11.80;91.70;;;;;;5054703;28;20826;-67
2024/02/21 11:03:18;;;;;;;13.10;5.03;;;11.90;91.70;;;;;;5053632;28;20485;-67
2024/02/21 11:05:45;;;;;;;7.90;3.40;;;11.90;91.70;;;;;;5053862;28;20451;-67
2024/02/21 11:08:13;;;;;;;15.80;3.90;;;12.00;91.80;;;;;;5054033;28;20447;-67
2024/02/21 11:10:40;;;;;;;9.37;3.73;;;12.20;91.90;;;;;;5054144;28;20845;-67
2024/02/21 11:13:10;;;;;;;11.30;5.23;;;12.30;91.90;;;;;;5053256;28;20475;-66
2024/02/21 11:15:37;;;;;;;9.10;3.77;;;12.30;91.80;;;;;;5053897;28;20943;-67
2024/02/21 11:18:04;;;;;;;10.50;3.77;;;12.50;91.10;;;;;;5053467;28;20482;-67
2024/02/21 11:20:35;;;;;;;16.03;5.33;;;12.20;91.00;;;;;;5053962;28;20542;-67
2024/02/21 11:23:02;;;;;;;12.33;3.73;;;12.40;90.00;;;;;;5053488;28;20467;-67
2024/02/21 11:25:30;;;;;;;13.63;4.97;;;12.40;90.60;;;;;;5053886;28;20546;-66
2024/02/21 11:28:02;;;;;;;13.70;4.57;;;12.20;91.80;;;;;;5053723;28;20458;-66
2024/02/21 11:30:31;;;;;;;10.20;4.10;;;12.30;91.90;;;;;;5053759;28;20459;-67
2024/02/21 11:33:04;;;;;;;11.00;4.27;;;12.10;86.60;;;;;;5053114;28;20475;-67
2024/02/21 11:35:35;;;;;;;8.53;4.33;;;12.00;91.70;;;;;;5053692;28;20459;-67
2024/02/21 11:38:14;;;;;;;14.40;4.70;;;12.10;91.80;;;;;;5053453;28;20505;-67
2024/02/21 11:40:41;;;;;;;12.93;4.90;;;12.20;91.80;;;;;;5051977;28;20500;-68
2024/02/21 11:43:08;;;;;;;13.03;4.00;;;12.00;91.80;;;;;;5052484;28;20475;-68
2024/02/21 11:45:36;;;;;;;10.27;3.77;;;12.10;91.20;;;;;;5053667;28;20447;-68
2024/02/21 11:48:05;;;;;;;11.23;3.83;;;12.00;86.50;;;;;;5053412;28;20462;-68
2024/02/21 11:50:32;;;;;;;9.47;4.10;;;12.00;91.70;;;;;;5053512;28;20538;-68
2024/02/21 11:52:59;;;;;;;8.00;3.40;;;12.20;91.80;;;;;;5052985;28;20474;-67
2024/02/21 11:55:26;;;;;;;12.57;4.47;;;12.40;86.80;;;;;;5053315;28;20451;-67
2024/02/21 11:57:52;;;;;;;16.27;4.70;;;12.40;86.80;;;;;;5053768;28;20486;-67
2024/02/21 12:00:21;;;;;;;12.20;4.00;;;12.40;86.80;;;;;;5045045;28;20471;-67
2024/02/21 12:02:50;;;;;;;10.90;4.27;;;12.20;86.60;;;;;;5052896;28;20474;-67
2024/02/21 12:05:19;;;;;;;9.70;2.97;;;12.30;91.90;;;;;;5053034;28;20453;-66
2024/02/21 12:07:46;;;;;;;11.90;2.77;;;12.10;86.60;;;;;;5053070;28;20546;-67
2024/02/21 12:10:14;;;;;;;6.57;2.70;;;12.20;86.60;;;;;;5052568;28;20451;-67
2024/02/21 12:12:41;;;;;;;10.60;2.93;;;12.00;86.40;;;;;;5052669;28;20844;-66
2024/02/21 12:15:08;;;;;;;9.70;3.07;;;12.00;81.40;;;;;;5052506;28;20453;-67
2024/02/21 12:17:35;;;;;;;9.23;3.40;;;12.00;86.50;;;;;;5052731;28;20483;-67
2024/02/21 12:20:08;;;;;;;10.50;3.63;;;12.10;86.60;;;;;;5052777;28;20453;-67
2024/02/21 12:22:36;;;;;;;12.13;3.80;;;12.00;91.80;;;;;;5052913;28;20471;-66
2024/02/21 12:25:07;;;;;;;11.53;2.70;;;12.00;90.80;;;;;;5053045;28;20482;-66
2024/02/21 12:27:34;;;;;;;11.80;3.80;;;12.20;86.70;;;;;;5052978;28;20448;-67
2024/02/21 12:30:02;;;;;;;11.30;3.77;;;12.30;87.40;;;;;;5052832;28;20447;-66
2024/02/21 12:32:29;;;;;;;12.60;3.03;;;12.30;83.10;;;;;;5052247;28;20474;-66
2024/02/21 12:34:56;;;;;;;10.70;3.13;;;12.20;79.00;;;;;;5052550;28;20458;-66
2024/02/21 12:37:26;;;;;;;17.63;3.00;;;12.30;86.40;;;;;;5052670;28;20480;-67
2024/02/21 12:39:53;;;;;;;7.43;3.10;;;12.40;83.20;;;;;;5052468;28;20955;-66